createdAt,value
2018-07-15T00:01:54.194Z,83.30
2018-07-15T00:04:22.898Z,83.30
2018-07-15T00:06:51.225Z,83.10
2018-07-15T00:09:19.513Z,83.30
2018-07-15T00:11:47.826Z,83.40
2018-07-15T00:14:15.351Z,83.30
2018-07-15T00:16:43.717Z,84.00
2018-07-15T00:19:11.214Z,84.00
2018-07-15T00:21:39.529Z,84.40
2018-07-15T00:24:07.828Z,84.20
2018-07-15T00:26:36.138Z,84.30
2018-07-15T00:29:04.425Z,84.10
2018-07-15T00:31:32.731Z,83.90
2018-07-15T00:34:01.120Z,84.10
2018-07-15T00:36:29.450Z,84.20
2018-07-15T00:38:57.742Z,84.00
2018-07-15T00:41:26.049Z,83.90
2018-07-15T00:43:54.369Z,84.00
2018-07-15T00:46:22.666Z,84.50
2018-07-15T00:48:50.982Z,84.80
2018-07-15T00:51:19.277Z,84.80
2018-07-15T00:53:47.592Z,84.60
2018-07-15T00:56:15.882Z,84.40
2018-07-15T00:58:44.203Z,84.40
2018-07-15T01:01:12.500Z,84.90
2018-07-15T01:03:40.818Z,85.10
2018-07-15T01:06:09.114Z,85.10
2018-07-15T01:08:37.447Z,84.90
2018-07-15T01:11:05.760Z,84.70
2018-07-15T01:13:34.078Z,85.00
2018-07-15T01:16:02.379Z,85.10
2018-07-15T01:18:30.698Z,85.00
2018-07-15T01:20:59.007Z,84.80
2018-07-15T01:23:27.346Z,84.70
2018-07-15T01:25:55.655Z,84.90
2018-07-15T01:28:23.989Z,85.40
2018-07-15T01:30:52.292Z,85.60
2018-07-15T01:33:20.616Z,85.40
2018-07-15T01:35:48.920Z,85.40
2018-07-15T01:38:17.247Z,85.40
2018-07-15T01:40:45.546Z,85.40
2018-07-15T01:43:13.862Z,85.30
2018-07-15T01:45:41.397Z,85.30
2018-07-15T01:48:09.719Z,85.60
2018-07-15T01:50:38.014Z,85.70
2018-07-15T01:53:06.327Z,85.40
2018-07-15T01:55:34.626Z,85.60
2018-07-15T01:58:02.943Z,85.70
2018-07-15T02:00:31.242Z,84.80
2018-07-15T02:02:59.562Z,85.50
2018-07-15T02:05:27.865Z,85.90
2018-07-15T02:07:56.191Z,85.80
2018-07-15T02:10:24.486Z,85.80
2018-07-15T02:12:52.807Z,86.10
2018-07-15T02:15:21.106Z,85.80
2018-07-15T02:17:49.418Z,86.00
2018-07-15T02:20:17.718Z,85.90
2018-07-15T02:22:46.060Z,85.90
2018-07-15T02:25:14.360Z,86.10
2018-07-15T02:27:42.685Z,86.10
2018-07-15T02:30:10.983Z,85.90
2018-07-15T02:32:39.295Z,85.90
2018-07-15T02:35:07.586Z,86.20
2018-07-15T02:37:35.906Z,86.40
2018-07-15T02:40:03.430Z,86.30
2018-07-15T02:42:31.735Z,87.20
2018-07-15T02:45:00.064Z,86.20
2018-07-15T02:47:28.362Z,86.60
2018-07-15T02:49:56.684Z,87.30
2018-07-15T02:52:24.982Z,86.30
2018-07-15T02:54:53.305Z,86.60
2018-07-15T02:57:21.600Z,86.80
2018-07-15T02:59:49.915Z,86.90
2018-07-15T03:02:18.214Z,87.00
2018-07-15T03:04:46.531Z,86.90
2018-07-15T03:07:14.830Z,86.80
2018-07-15T03:09:43.159Z,86.90
2018-07-15T03:12:11.455Z,86.90
2018-07-15T03:14:39.771Z,86.70
2018-07-15T03:17:08.090Z,86.90
2018-07-15T03:19:36.399Z,87.20
2018-07-15T03:22:04.694Z,87.40
2018-07-15T03:24:33.011Z,87.70
2018-07-15T03:27:01.311Z,87.80
2018-07-15T03:29:29.634Z,87.70
2018-07-15T03:31:57.930Z,87.30
2018-07-15T03:34:26.250Z,87.40
2018-07-15T03:36:54.554Z,87.50
2018-07-15T03:39:22.875Z,87.40
2018-07-15T03:41:51.174Z,87.30
2018-07-15T03:44:19.489Z,87.30
2018-07-15T03:46:47.794Z,87.20
2018-07-15T03:49:16.114Z,87.30
2018-07-15T03:51:44.418Z,87.20
2018-07-15T03:54:12.745Z,86.90
2018-07-15T03:56:41.034Z,86.70
2018-07-15T03:59:09.359Z,86.70
2018-07-15T04:01:37.665Z,86.80
2018-07-15T04:04:05.984Z,87.30
2018-07-15T04:06:34.292Z,86.90
2018-07-15T04:09:02.610Z,86.70
2018-07-15T04:11:30.906Z,86.60
2018-07-15T04:13:58.458Z,86.50
2018-07-15T04:16:26.759Z,86.40
2018-07-15T04:18:55.082Z,86.20
2018-07-15T04:21:23.378Z,85.00
2018-07-15T04:23:51.702Z,84.10
2018-07-15T04:26:20.004Z,82.80
2018-07-15T04:28:48.318Z,82.60
2018-07-15T04:31:16.620Z,82.50
2018-07-15T04:33:44.939Z,82.60
2018-07-15T04:36:13.234Z,82.60
2018-07-15T04:38:40.792Z,82.60
2018-07-15T04:41:09.093Z,82.40
2018-07-15T04:43:37.382Z,82.40
2018-07-15T04:46:05.699Z,82.50
2018-07-15T04:48:33.998Z,82.50
2018-07-15T04:51:02.314Z,80.60
2018-07-15T04:53:30.606Z,77.20
2018-07-15T04:55:58.915Z,73.80
2018-07-15T04:58:27.216Z,70.90
2018-07-15T05:00:55.527Z,69.00
2018-07-15T05:03:23.819Z,67.20
2018-07-15T05:05:52.133Z,65.50
2018-07-15T05:08:20.422Z,64.60
2018-07-15T05:10:48.731Z,64.30
2018-07-15T05:13:17.019Z,61.90
2018-07-15T05:15:44.568Z,61.90
2018-07-15T05:18:12.862Z,61.40
2018-07-15T05:20:41.179Z,61.10
2018-07-15T05:23:09.467Z,61.60
2018-07-15T05:25:37.774Z,62.60
2018-07-15T05:28:06.063Z,63.50
2018-07-15T05:30:34.397Z,64.20
2018-07-15T05:33:02.691Z,66.00
2018-07-15T05:35:30.999Z,65.70
2018-07-15T05:37:59.291Z,66.10
2018-07-15T05:40:27.600Z,66.60
2018-07-15T05:42:55.118Z,66.50
2018-07-15T05:45:23.426Z,67.30
2018-07-15T05:47:51.723Z,67.70
2018-07-15T05:50:20.034Z,67.70
2018-07-15T05:52:48.326Z,67.50
2018-07-15T05:55:15.870Z,67.50
2018-07-15T05:57:44.158Z,67.50
2018-07-15T06:00:12.467Z,67.00
2018-07-15T06:02:40.765Z,66.60
2018-07-15T06:05:09.099Z,66.40
2018-07-15T06:07:37.391Z,66.80
2018-07-15T06:10:05.714Z,66.00
2018-07-15T06:12:34.002Z,65.50
2018-07-15T06:15:02.315Z,65.40
2018-07-15T06:17:30.619Z,65.10
2018-07-15T06:19:58.158Z,65.10
2018-07-15T06:22:26.451Z,64.20
2018-07-15T06:24:54.819Z,63.80
2018-07-15T06:27:23.110Z,63.90
2018-07-15T06:29:51.426Z,63.50
2018-07-15T06:32:19.714Z,63.30
2018-07-15T06:34:48.030Z,63.20
2018-07-15T06:37:15.583Z,63.20
2018-07-15T06:39:43.873Z,62.70
2018-07-15T06:42:12.190Z,62.10
2018-07-15T06:44:40.482Z,61.10
2018-07-15T06:47:08.804Z,61.40
2018-07-15T06:49:37.095Z,60.80
2018-07-15T06:52:05.411Z,60.10
2018-07-15T06:54:33.703Z,59.60
2018-07-15T06:57:02.020Z,59.30
2018-07-15T06:59:30.322Z,58.80
2018-07-15T07:01:58.630Z,59.20
2018-07-15T07:04:26.926Z,58.80
2018-07-15T07:06:55.247Z,58.10
2018-07-15T07:09:23.540Z,57.80
2018-07-15T07:11:51.858Z,57.20
2018-07-15T07:14:20.217Z,56.90
2018-07-15T07:16:48.498Z,56.70
2018-07-15T07:19:16.787Z,56.60
2018-07-15T07:21:45.100Z,56.10
2018-07-15T07:24:13.399Z,56.20
2018-07-15T07:26:41.710Z,56.60
2018-07-15T07:29:09.242Z,55.90
2018-07-15T07:31:37.554Z,55.20
2018-07-15T07:34:05.841Z,54.80
2018-07-15T07:36:34.155Z,54.80
2018-07-15T07:39:02.457Z,53.70
2018-07-15T07:41:30.774Z,53.40
2018-07-15T07:43:59.078Z,53.00
2018-07-15T07:46:26.622Z,53.00
2018-07-15T07:48:54.917Z,51.30
2018-07-15T07:51:23.234Z,50.90
2018-07-15T07:53:51.530Z,51.00
2018-07-15T07:56:19.851Z,50.40
2018-07-15T07:58:48.137Z,48.40
2018-07-15T08:01:16.453Z,47.90
2018-07-15T08:03:44.757Z,48.60
2018-07-15T08:06:13.066Z,48.20
2018-07-15T08:08:41.366Z,48.10
2018-07-15T08:11:09.682Z,46.60
2018-07-15T08:13:37.214Z,46.50
2018-07-15T08:16:05.526Z,45.60
2018-07-15T08:18:33.820Z,43.60
2018-07-15T08:21:02.134Z,42.80
2018-07-15T08:23:30.430Z,43.50
2018-07-15T08:25:58.733Z,43.50
2018-07-15T08:28:27.238Z,42.70
2018-07-15T08:31:03.098Z,42.70
2018-07-15T08:33:31.390Z,43.00
2018-07-15T08:35:59.702Z,42.70
2018-07-15T08:38:28.017Z,43.00
2018-07-15T08:40:56.306Z,42.90
2018-07-15T08:43:24.626Z,42.60
2018-07-15T08:45:52.959Z,42.20
2018-07-15T08:48:21.263Z,41.40
2018-07-15T08:50:49.575Z,41.00
2018-07-15T08:53:17.895Z,41.10
2018-07-15T08:55:46.184Z,41.00
2018-07-15T08:58:14.498Z,41.50
2018-07-15T09:00:42.791Z,40.20
2018-07-15T09:03:11.108Z,40.00
2018-07-15T09:05:39.417Z,39.50
2018-07-15T09:08:07.740Z,39.60
2018-07-15T09:10:36.046Z,39.90
2018-07-15T09:13:04.363Z,40.50
2018-07-15T09:15:32.664Z,40.20
2018-07-15T09:18:01.405Z,38.20
2018-07-15T09:20:29.697Z,37.10
2018-07-15T09:22:58.020Z,37.10
2018-07-15T09:25:26.317Z,36.60
2018-07-15T09:27:54.687Z,35.80
2018-07-15T09:30:22.948Z,35.00
2018-07-15T09:32:51.266Z,35.70
2018-07-15T09:35:19.607Z,36.00
2018-07-15T09:37:47.898Z,36.20
2018-07-15T09:40:16.193Z,35.20
2018-07-15T09:42:44.504Z,34.50
2018-07-15T09:45:12.796Z,35.20
2018-07-15T09:47:41.118Z,35.30
2018-07-15T09:50:09.419Z,35.70
2018-07-15T09:52:37.740Z,35.60
2018-07-15T09:55:06.039Z,35.90
2018-07-15T09:57:33.583Z,35.90
2018-07-15T10:00:01.876Z,34.50
2018-07-15T10:02:30.205Z,35.00
2018-07-15T10:04:58.505Z,35.70
2018-07-15T10:07:26.063Z,35.60
2018-07-15T10:09:54.363Z,33.80
2018-07-15T10:12:22.682Z,33.60
2018-07-15T10:14:50.980Z,32.60
2018-07-15T10:17:19.294Z,33.30
2018-07-15T10:19:47.586Z,34.00
2018-07-15T10:22:15.906Z,33.60
2018-07-15T10:24:44.200Z,32.90
2018-07-15T10:27:12.523Z,33.10
2018-07-15T10:29:40.815Z,31.70
2018-07-15T10:32:09.158Z,31.70
2018-07-15T10:34:37.454Z,31.50
2018-07-15T10:37:05.764Z,31.50
2018-07-15T10:39:34.075Z,31.60
2018-07-15T10:42:02.377Z,30.30
2018-07-15T10:44:30.742Z,29.40
2018-07-15T10:46:58.999Z,29.70
2018-07-15T10:49:27.323Z,29.90
2018-07-15T10:51:55.619Z,30.00
2018-07-15T10:54:23.938Z,29.10
2018-07-15T10:56:52.235Z,28.70
2018-07-15T10:59:20.546Z,28.00
2018-07-15T11:01:48.838Z,28.50
2018-07-15T11:04:17.161Z,29.30
2018-07-15T11:06:45.458Z,29.90
2018-07-15T11:09:13.767Z,30.00
2018-07-15T11:11:42.058Z,30.30
2018-07-15T11:14:10.379Z,29.60
2018-07-15T11:16:38.773Z,28.60
2018-07-15T11:19:07.007Z,28.60
2018-07-15T11:21:35.294Z,28.00
2018-07-15T11:24:03.607Z,28.70
2018-07-15T11:26:31.914Z,29.30
2018-07-15T11:29:00.242Z,27.80
2018-07-15T11:31:28.615Z,26.90
2018-07-15T11:33:56.890Z,27.60
2018-07-15T11:36:25.350Z,29.00
2018-07-15T11:38:53.676Z,27.60
2018-07-15T11:41:21.980Z,27.80
2018-07-15T11:43:50.302Z,27.30
2018-07-15T11:46:19.590Z,26.90
2018-07-15T11:48:47.886Z,27.40
2018-07-15T11:51:16.198Z,27.40
2018-07-15T11:53:44.498Z,27.50
2018-07-15T11:56:12.848Z,27.20
2018-07-15T11:58:41.219Z,27.20
2018-07-15T12:01:09.539Z,27.70
2018-07-15T12:03:37.839Z,27.20
2018-07-15T12:06:06.167Z,28.30
2018-07-15T12:08:33.690Z,27.80
2018-07-15T12:11:02.009Z,27.80
2018-07-15T12:13:30.313Z,27.40
2018-07-15T12:15:58.835Z,28.10
2018-07-15T12:18:26.393Z,28.10
2018-07-15T12:20:54.702Z,28.60
2018-07-15T12:23:23.073Z,28.60
2018-07-15T12:25:51.402Z,28.40
2018-07-15T12:28:19.771Z,28.60
2018-07-15T12:30:48.061Z,28.30
2018-07-15T12:33:15.602Z,28.30
2018-07-15T12:35:43.913Z,27.40
2018-07-15T12:38:13.205Z,27.40
2018-07-15T12:40:41.521Z,28.10
2018-07-15T12:43:09.816Z,26.00
2018-07-15T12:45:38.135Z,26.70
2018-07-15T12:48:06.635Z,27.10
2018-07-15T12:50:34.963Z,27.70
2018-07-15T12:53:03.254Z,26.60
2018-07-15T12:55:31.566Z,27.50
2018-07-15T12:57:59.091Z,27.50
2018-07-15T13:00:27.401Z,27.70
2018-07-15T13:02:54.922Z,27.70
2018-07-15T13:05:23.253Z,28.60
2018-07-15T13:07:51.544Z,28.50
2018-07-15T13:10:19.834Z,27.70
2018-07-15T13:12:48.155Z,28.20
2018-07-15T13:15:16.455Z,27.50
2018-07-15T13:17:44.771Z,26.80
2018-07-15T13:20:13.059Z,27.60
2018-07-15T13:22:41.379Z,27.50
2018-07-15T13:25:09.675Z,27.50
2018-07-15T13:27:37.215Z,27.50
2018-07-15T13:30:05.516Z,27.40
2018-07-15T13:32:33.827Z,27.50
2018-07-15T13:35:02.119Z,27.70
2018-07-15T13:37:30.434Z,27.40
2018-07-15T13:39:58.729Z,27.40
2018-07-15T13:42:27.047Z,27.50
2018-07-15T13:44:55.362Z,26.90
2018-07-15T13:47:23.674Z,27.10
2018-07-15T13:49:51.961Z,27.10
2018-07-15T13:52:20.279Z,27.40
2018-07-15T13:54:48.587Z,27.10
2018-07-15T13:57:16.904Z,27.00
2018-07-15T13:59:45.198Z,27.40
2018-07-15T14:02:13.507Z,27.00
2018-07-15T14:04:41.795Z,27.10
2018-07-15T14:07:10.111Z,26.70
2018-07-15T14:09:38.398Z,27.20
2018-07-15T14:12:06.713Z,27.80
2018-07-15T14:14:34.259Z,27.80
2018-07-15T14:17:01.806Z,27.60
2018-07-15T14:19:30.095Z,28.40
2018-07-15T14:21:58.410Z,28.70
2018-07-15T14:24:26.702Z,28.70
2018-07-15T14:26:55.015Z,29.20
2018-07-15T14:29:23.308Z,28.20
2018-07-15T14:31:51.618Z,28.50
2018-07-15T14:34:19.912Z,28.10
2018-07-15T14:36:47.462Z,28.10
2018-07-15T14:39:15.751Z,26.50
2018-07-15T14:41:44.075Z,26.60
2018-07-15T14:44:12.363Z,26.80
2018-07-15T14:46:40.696Z,26.50
2018-07-15T14:49:08.986Z,26.20
2018-07-15T14:51:37.283Z,26.40
2018-07-15T14:54:05.605Z,26.40
2018-07-15T14:56:33.908Z,26.90
2018-07-15T14:59:01.453Z,26.90
2018-07-15T15:01:29.737Z,26.00
2018-07-15T15:03:58.051Z,25.60
2018-07-15T15:06:26.343Z,25.70
2018-07-15T15:08:54.663Z,26.70
2018-07-15T15:11:22.954Z,27.30
2018-07-15T15:13:51.272Z,28.00
2018-07-15T15:16:19.567Z,27.50
2018-07-15T15:18:47.888Z,27.00
2018-07-15T15:21:16.182Z,26.90
2018-07-15T15:23:44.500Z,27.50
2018-07-15T15:26:12.786Z,26.60
2018-07-15T15:28:41.108Z,27.30
2018-07-15T15:31:09.398Z,26.90
2018-07-15T15:33:37.731Z,26.40
2018-07-15T15:36:06.019Z,26.20
2018-07-15T15:38:34.335Z,26.60
2018-07-15T15:41:02.624Z,26.30
2018-07-15T15:43:30.938Z,26.40
2018-07-15T15:45:59.234Z,25.60
2018-07-15T15:48:27.550Z,26.50
2018-07-15T15:50:55.842Z,26.50
2018-07-15T15:53:23.387Z,26.60
2018-07-15T15:55:51.681Z,27.00
2018-07-15T15:58:19.990Z,26.80
2018-07-15T16:00:48.287Z,26.70
2018-07-15T16:03:16.607Z,26.00
2018-07-15T16:05:44.901Z,27.20
2018-07-15T16:08:13.214Z,27.40
2018-07-15T16:10:41.507Z,28.20
2018-07-15T16:13:09.828Z,28.30
2018-07-15T16:15:37.362Z,28.30
2018-07-15T16:18:05.674Z,26.80
2018-07-15T16:20:33.966Z,26.80
2018-07-15T16:23:02.283Z,27.70
2018-07-15T16:25:30.571Z,28.10
2018-07-15T16:27:58.881Z,28.00
2018-07-15T16:30:27.170Z,27.40
2018-07-15T16:32:55.483Z,27.70
2018-07-15T16:35:23.774Z,27.50
2018-07-15T16:37:52.335Z,27.70
2018-07-15T16:40:20.627Z,28.50
2018-07-15T16:42:48.922Z,28.00
2018-07-15T16:45:17.234Z,28.30
2018-07-15T16:47:45.523Z,28.50
2018-07-15T16:50:13.846Z,28.40
2018-07-15T16:52:42.149Z,28.20
2018-07-15T16:55:10.466Z,28.40
2018-07-15T16:57:38.758Z,28.70
2018-07-15T17:00:07.070Z,29.10
2018-07-15T17:02:35.368Z,29.30
2018-07-15T17:05:02.909Z,29.30
2018-07-15T17:07:31.207Z,29.30
2018-07-15T17:09:59.518Z,29.30
2018-07-15T17:12:27.811Z,29.30
2018-07-15T17:14:56.133Z,29.60
2018-07-15T17:17:24.414Z,29.50
2018-07-15T17:19:52.727Z,28.70
2018-07-15T17:22:21.023Z,26.80
2018-07-15T17:24:49.335Z,26.40
2018-07-15T17:27:17.626Z,24.50
2018-07-15T17:29:45.939Z,23.20
2018-07-15T17:32:14.290Z,23.30
2018-07-15T17:34:42.570Z,22.80
2018-07-15T17:37:10.863Z,22.30
2018-07-15T17:39:39.194Z,22.10
2018-07-15T17:42:07.482Z,21.70
2018-07-15T17:44:35.802Z,21.10
2018-07-15T17:47:04.093Z,21.30
2018-07-15T17:49:31.649Z,21.30
2018-07-15T17:51:59.943Z,19.90
2018-07-15T17:54:28.254Z,20.20
2018-07-15T17:56:56.542Z,20.00
2018-07-15T17:59:24.879Z,20.10
2018-07-15T18:01:53.175Z,20.20
2018-07-15T18:04:21.519Z,20.50
2018-07-15T18:06:49.807Z,19.60
2018-07-15T18:09:18.122Z,20.20
2018-07-15T18:11:46.414Z,20.10
2018-07-15T18:14:14.736Z,20.50
2018-07-15T18:16:43.027Z,20.20
2018-07-15T18:19:11.343Z,20.10
2018-07-15T18:21:39.666Z,20.80
2018-07-15T18:24:07.990Z,21.10
2018-07-15T18:26:36.297Z,21.80
2018-07-15T18:29:04.635Z,21.90
2018-07-15T18:31:33.024Z,21.60
2018-07-15T18:34:01.354Z,22.40
2018-07-15T18:36:29.671Z,23.10
2018-07-15T18:38:58.077Z,24.20
2018-07-15T18:41:26.335Z,25.30
2018-07-15T18:43:54.632Z,26.60
2018-07-15T18:46:22.959Z,27.70
2018-07-15T18:48:51.249Z,28.50
2018-07-15T18:51:19.566Z,29.20
2018-07-15T18:53:47.861Z,29.90
2018-07-15T18:56:16.166Z,30.60
2018-07-15T18:58:44.453Z,31.70
2018-07-15T19:01:12.762Z,32.40
2018-07-15T19:03:41.094Z,33.10
2018-07-15T19:06:09.414Z,34.10
2018-07-15T19:08:37.706Z,34.50
2018-07-15T19:11:06.059Z,35.10
2018-07-15T19:13:34.354Z,36.80
2018-07-15T19:16:02.681Z,37.30
2018-07-15T19:18:30.993Z,37.50
2018-07-15T19:20:59.318Z,38.50
2018-07-15T19:23:27.606Z,39.20
2018-07-15T19:25:55.923Z,39.70
2018-07-15T19:28:24.215Z,40.50
2018-07-15T19:30:52.527Z,40.20
2018-07-15T19:33:20.058Z,40.20
2018-07-15T19:35:48.375Z,40.40
2018-07-15T19:38:16.683Z,40.00
2018-07-15T19:40:45.032Z,41.30
2018-07-15T19:43:13.347Z,41.70
2018-07-15T19:45:41.666Z,41.90
2018-07-15T19:48:09.312Z,41.90
2018-07-15T19:50:37.674Z,41.90
2018-07-15T19:53:05.963Z,42.30
2018-07-15T19:55:34.295Z,42.90
2018-07-15T19:58:02.595Z,43.10
2018-07-15T20:00:30.922Z,43.40
2018-07-15T20:02:59.223Z,43.60
2018-07-15T20:05:27.545Z,43.80
2018-07-15T20:07:55.850Z,44.00
2018-07-15T20:10:24.154Z,44.30
2018-07-15T20:12:52.449Z,44.70
2018-07-15T20:15:20.766Z,45.30
2018-07-15T20:17:49.059Z,46.00
2018-07-15T20:20:17.386Z,46.50
2018-07-15T20:22:45.704Z,46.70
2018-07-15T20:25:14.043Z,46.70
2018-07-15T20:27:42.355Z,47.00
2018-07-15T20:30:10.678Z,47.50
2018-07-15T20:32:38.969Z,48.60
2018-07-15T20:35:07.299Z,48.00
2018-07-15T20:37:35.602Z,48.60
2018-07-15T20:40:03.895Z,49.20
2018-07-15T20:42:32.210Z,48.90
2018-07-15T20:45:00.530Z,49.10
2018-07-15T20:47:28.857Z,49.30
2018-07-15T20:49:57.150Z,49.80
2018-07-15T20:52:25.474Z,50.70
2018-07-15T20:54:53.766Z,50.20
2018-07-15T20:57:22.087Z,50.40
2018-07-15T20:59:50.399Z,51.50
2018-07-15T21:02:18.718Z,50.70
2018-07-15T21:04:47.010Z,50.70
2018-07-15T21:07:15.322Z,51.00
2018-07-15T21:09:43.618Z,51.00
2018-07-15T21:12:11.938Z,51.20
2018-07-15T21:14:40.235Z,51.30
2018-07-15T21:17:08.553Z,51.40
2018-07-15T21:19:36.854Z,51.50
2018-07-15T21:22:05.166Z,51.50
2018-07-15T21:24:33.462Z,51.80
2018-07-15T21:27:01.769Z,51.90
2018-07-15T21:29:30.058Z,52.00
2018-07-15T21:31:58.380Z,52.30
2018-07-15T21:34:26.670Z,52.60
2018-07-15T21:36:54.986Z,53.00
2018-07-15T21:39:23.281Z,53.40
2018-07-15T21:41:51.648Z,53.80
2018-07-15T21:44:20.014Z,54.00
2018-07-15T21:46:48.250Z,54.30
2018-07-15T21:49:16.542Z,54.60
2018-07-15T21:51:44.858Z,54.70
2018-07-15T21:54:13.154Z,54.80
2018-07-15T21:56:41.470Z,55.00
2018-07-15T21:59:09.762Z,55.30
2018-07-15T22:01:38.075Z,55.50
2018-07-15T22:04:06.367Z,55.70
2018-07-15T22:07:00.146Z,56.00
2018-07-15T22:09:40.219Z,56.50
2018-07-15T22:12:08.542Z,57.10
2018-07-15T22:14:36.836Z,57.00
2018-07-15T22:17:05.159Z,56.70
2018-07-15T22:19:33.449Z,56.70
2018-07-15T22:22:02.187Z,57.00
2018-07-15T22:24:30.482Z,57.20
2018-07-15T22:26:58.794Z,57.40
2018-07-15T22:29:27.088Z,57.40
2018-07-15T22:31:55.398Z,57.70
2018-07-15T22:34:23.686Z,57.80
2018-07-15T22:36:51.995Z,58.10
2018-07-15T22:39:20.278Z,58.40
2018-07-15T22:41:48.592Z,58.70
2018-07-15T22:44:16.914Z,58.80
2018-07-15T22:46:45.229Z,58.90
2018-07-15T22:49:13.523Z,58.80
2018-07-15T22:51:41.830Z,59.50
2018-07-15T22:54:10.114Z,59.10
2018-07-15T22:56:38.423Z,59.10
2018-07-15T22:59:06.706Z,59.30
2018-07-15T23:01:35.019Z,59.10
2018-07-15T23:04:03.302Z,59.10
2018-07-15T23:06:31.586Z,59.40
2018-07-15T23:08:59.898Z,59.50
2018-07-15T23:11:28.182Z,59.60
2018-07-15T23:13:56.490Z,59.90
2018-07-15T23:16:24.778Z,60.00
2018-07-15T23:18:53.086Z,60.00
2018-07-15T23:21:21.374Z,61.20
2018-07-15T23:23:49.686Z,60.50
2018-07-15T23:26:17.965Z,60.90
2018-07-15T23:28:46.274Z,61.00
2018-07-15T23:31:14.567Z,61.10
2018-07-15T23:33:42.869Z,61.50
2018-07-15T23:36:11.157Z,61.80
2018-07-15T23:38:39.474Z,62.20
2018-07-15T23:41:07.768Z,62.70
2018-07-15T23:43:35.318Z,62.70
2018-07-15T23:46:03.601Z,63.10
2018-07-15T23:48:31.910Z,62.80
2018-07-15T23:51:00.202Z,62.70
2018-07-15T23:53:28.509Z,63.20
2018-07-15T23:55:56.800Z,63.40
2018-07-15T23:58:25.106Z,63.80
